No.3tokuyomaru — JD3132 — position and weather

sailwx.info

Track history (hours):
 
Tides and Currents Weather Stations Pressure Air Temp Water Temp Dewpoint Dewpoint Depression Visibility Wind Speed Wind Dir Waves Ship Positions

No.3tokuyomaru

Last reported at 2017-Dec-11 12:49 UTC. Time now 2017-Dec-12 16:18 UTC.
Position N 33°54' E 135°01'.

Length 67 m; draft 4 m.

Type: Tanker. MMSI: 431002151.

Date/timePositionNaut miles runAvg speedWind from/ knotsBaromVisibWave heightAir tempDewpointWater temp
2017-Dec-11 12:49N 33°54' E 135°01'513.4
2017-Dec-11 12:27N 33°58' E 134°59'613.2
2017-Dec-11 11:59N 34°04' E 134°58'713.5
2017-Dec-11 11:30N 34°11' E 134°58'714.7
2017-Dec-11 11:01N 34°18' E 134°59'713.7
2017-Dec-11 10:30N 34°25' E 135°01'713.3
2017-Dec-11 10:01N 34°31' E 135°02'611.9
2017-Dec-11 09:31N 34°37' E 135°01'612.4
2017-Dec-11 09:00N 34°38' E 134°53'713.3
2017-Dec-11 08:30N 34°41' E 134°46'713.0
2017-Dec-11 08:00N 34°44' E 134°39'3 0.7
2017-Dec-11 04:01N 34°45' E 134°36'1 4.6
2017-Dec-11 03:49N 34°45' E 134°37'1 0.1
2017-Dec-10 16:20N 34°44' E 134°37'0 0.0
2017-Dec-10 14:32N 34°44' E 134°38'0 0.0
2017-Dec-10 14:26N 34°44' E 134°38'0 0.0
2017-Dec-10 11:08N 34°44' E 134°38'0 0.1
2017-Dec-10 10:13N 34°44' E 134°37'2612.4
2017-Dec-10 08:08N 34°33' E 134°09'1 0.0
2017-Dec-09 03:55N 34°32' E 134°08'2213.2
2017-Dec-09 02:16N 34°43' E 134°31'412.4
2017-Dec-09 01:58N 34°45' E 134°35'0 0.0
2017-Dec-08 10:14N 34°45' E 134°35'2 8.0
2017-Dec-08 09:59N 34°44' E 134°33'0 0.0
2017-Dec-07 07:40N 34°44' E 134°33'3 0.4
2017-Dec-06 23:55N 34°45' E 134°37'513.1
2017-Dec-06 23:30N 34°42' E 134°43'713.6
2017-Dec-06 23:00N 34°39' E 134°50'714.0
2017-Dec-06 22:31N 34°37' E 134°58'612.0
2017-Dec-06 22:00N 34°35' E 135°05'612.1
2017-Dec-06 21:30N 34°29' E 135°03'612.8
2017-Dec-06 21:00N 34°23' E 135°01'  
2017-Dec-04 02:58N 34°44' E 134°33'3 5.6
2017-Dec-04 02:30N 34°46' E 134°35'0 0.0
2017-Dec-03 23:32N 34°46' E 134°35'0 0.0
2017-Dec-03 23:31N 34°46' E 134°35'4 0.6
2017-Dec-03 17:39N 34°44' E 134°39'212.1
2017-Dec-03 17:30N 34°43' E 134°41'611.8
2017-Dec-03 17:01N 34°40' E 134°47'510.5
2017-Dec-03 16:31N 34°38' E 134°53'5 9.8
2017-Dec-03 16:01N 34°37' E 134°59'4 7.9
2017-Dec-03 15:30N 34°36' E 135°03'5 9.2
2017-Dec-03 15:01N 34°32' E 135°04'612.1
2017-Dec-03 14:31N 34°26' E 135°02'611.9
2017-Dec-03 14:01N 34°20' E 135°01'510.9
2017-Dec-03 13:31N 34°15' E 134°59'612.2
2017-Dec-03 13:00N 34°09' E 134°60'612.5
2017-Dec-03 12:30N 34°02' E 135°00'612.5
2017-Dec-03 12:00N 33°56' E 135°01'90 6.7
2017-Dec-02 22:33N 34°38' E 136°38'112.8
2017-Dec-02 22:30N 34°38' E 136°37'3 0.2
2017-Dec-02 05:39N 34°37' E 136°33'0 0.1
2017-Dec-02 05:28N 34°37' E 136°33'4 8.9
2017-Dec-02 05:00N 34°41' E 136°36'712.7
2017-Dec-02 04:29N 34°47' E 136°39'612.6
2017-Dec-02 04:00N 34°52' E 136°40'5 9.4
2017-Dec-02 03:31N 34°57' E 136°39'0 0.7
2017-Dec-02 02:56N 34°57' E 136°38'0 0.0
2017-Dec-02 02:08N 34°57' E 136°38'0 0.0
2017-Dec-02 01:56N 34°57' E 136°38'0 0.0
2017-Dec-02 01:20N 34°57' E 136°38'0 0.0
2017-Dec-02 00:50N 34°57' E 136°38'0 0.0
2017-Dec-02 00:26N 34°57' E 136°38'0 0.0
2017-Dec-01 23:50N 34°57' E 136°38'0 0.0
2017-Dec-01 23:26N 34°57' E 136°38'0 0.0
2017-Dec-01 23:00N 34°57' E 136°38'3 5.0
2017-Dec-01 22:30N 34°57' E 136°41'611.8
2017-Dec-01 22:00N 34°51' E 136°40'1212.9
2017-Dec-01 21:06N 34°40' E 136°35'213.0
2017-Dec-01 20:58N 34°39' E 136°34'  
Track history (hours):
 
Tides and Currents Weather Stations Pressure Air Temp Water Temp Dewpoint Dewpoint Depression Visibility Wind Speed Wind Dir Waves Ship Positions

No.3tokuyomaru

Last reported at 2017-Dec-11 12:49 UTC. Time now 2017-Dec-12 16:18 UTC.
Position N 33°54' E 135°01'.

Length 67 m; draft 4 m.

Type: Tanker. MMSI: 431002151.

Date/timePositionNaut miles runAvg speedWind from/ knotsBaromVisibWave heightAir tempDewpointWater temp
2017-Dec-11 12:49N 33°54' E 135°01'513.4
2017-Dec-11 12:27N 33°58' E 134°59'613.2
2017-Dec-11 11:59N 34°04' E 134°58'713.5
2017-Dec-11 11:30N 34°11' E 134°58'714.7
2017-Dec-11 11:01N 34°18' E 134°59'713.7
2017-Dec-11 10:30N 34°25' E 135°01'713.3
2017-Dec-11 10:01N 34°31' E 135°02'611.9
2017-Dec-11 09:31N 34°37' E 135°01'612.4
2017-Dec-11 09:00N 34°38' E 134°53'713.3
2017-Dec-11 08:30N 34°41' E 134°46'713.0
2017-Dec-11 08:00N 34°44' E 134°39'3 0.7
2017-Dec-11 04:01N 34°45' E 134°36'1 4.6
2017-Dec-11 03:49N 34°45' E 134°37'1 0.1
2017-Dec-10 16:20N 34°44' E 134°37'0 0.0
2017-Dec-10 14:32N 34°44' E 134°38'0 0.0
2017-Dec-10 14:26N 34°44' E 134°38'0 0.0
2017-Dec-10 11:08N 34°44' E 134°38'0 0.1
2017-Dec-10 10:13N 34°44' E 134°37'2612.4
2017-Dec-10 08:08N 34°33' E 134°09'1 0.0
2017-Dec-09 03:55N 34°32' E 134°08'2213.2
2017-Dec-09 02:16N 34°43' E 134°31'412.4
2017-Dec-09 01:58N 34°45' E 134°35'0 0.0
2017-Dec-08 10:14N 34°45' E 134°35'2 8.0
2017-Dec-08 09:59N 34°44' E 134°33'0 0.0
2017-Dec-07 07:40N 34°44' E 134°33'3 0.4
2017-Dec-06 23:55N 34°45' E 134°37'513.1
2017-Dec-06 23:30N 34°42' E 134°43'713.6
2017-Dec-06 23:00N 34°39' E 134°50'714.0
2017-Dec-06 22:31N 34°37' E 134°58'612.0
2017-Dec-06 22:00N 34°35' E 135°05'612.1
2017-Dec-06 21:30N 34°29' E 135°03'612.8
2017-Dec-06 21:00N 34°23' E 135°01'  
2017-Dec-04 02:58N 34°44' E 134°33'3 5.6
2017-Dec-04 02:30N 34°46' E 134°35'0 0.0
2017-Dec-03 23:32N 34°46' E 134°35'0 0.0
2017-Dec-03 23:31N 34°46' E 134°35'4 0.6
2017-Dec-03 17:39N 34°44' E 134°39'212.1
2017-Dec-03 17:30N 34°43' E 134°41'611.8
2017-Dec-03 17:01N 34°40' E 134°47'510.5
2017-Dec-03 16:31N 34°38' E 134°53'5 9.8
2017-Dec-03 16:01N 34°37' E 134°59'4 7.9
2017-Dec-03 15:30N 34°36' E 135°03'5 9.2
2017-Dec-03 15:01N 34°32' E 135°04'612.1
2017-Dec-03 14:31N 34°26' E 135°02'611.9
2017-Dec-03 14:01N 34°20' E 135°01'510.9
2017-Dec-03 13:31N 34°15' E 134°59'612.2
2017-Dec-03 13:00N 34°09' E 134°60'612.5
2017-Dec-03 12:30N 34°02' E 135°00'612.5
2017-Dec-03 12:00N 33°56' E 135°01'90 6.7
2017-Dec-02 22:33N 34°38' E 136°38'112.8
2017-Dec-02 22:30N 34°38' E 136°37'3 0.2
2017-Dec-02 05:39N 34°37' E 136°33'0 0.1
2017-Dec-02 05:28N 34°37' E 136°33'4 8.9
2017-Dec-02 05:00N 34°41' E 136°36'712.7
2017-Dec-02 04:29N 34°47' E 136°39'612.6
2017-Dec-02 04:00N 34°52' E 136°40'5 9.4
2017-Dec-02 03:31N 34°57' E 136°39'0 0.7
2017-Dec-02 02:56N 34°57' E 136°38'0 0.0
2017-Dec-02 02:08N 34°57' E 136°38'0 0.0
2017-Dec-02 01:56N 34°57' E 136°38'0 0.0
2017-Dec-02 01:20N 34°57' E 136°38'0 0.0
2017-Dec-02 00:50N 34°57' E 136°38'0 0.0
2017-Dec-02 00:26N 34°57' E 136°38'0 0.0
2017-Dec-01 23:50N 34°57' E 136°38'0 0.0
2017-Dec-01 23:26N 34°57' E 136°38'0 0.0
2017-Dec-01 23:00N 34°57' E 136°38'3 5.0
2017-Dec-01 22:30N 34°57' E 136°41'611.8
2017-Dec-01 22:00N 34°51' E 136°40'1212.9
2017-Dec-01 21:06N 34°40' E 136°35'213.0
2017-Dec-01 20:58N 34°39' E 136°34'  

Dump ship's entire track history